createdAt,value
2023-06-03T00:00:01.596Z,59.65
2023-06-03T00:05:06.060Z,59.85
2023-06-03T00:10:09.606Z,59.63
2023-06-03T00:15:12.582Z,59.79
2023-06-03T00:20:15.593Z,60.27
2023-06-03T00:25:18.462Z,60.31
2023-06-03T00:30:21.351Z,60.88
2023-06-03T00:35:24.570Z,60.55
2023-06-03T00:40:27.584Z,60.01
2023-06-03T00:45:30.636Z,60.57
2023-06-03T00:50:34.370Z,61.11
2023-06-03T00:55:38.518Z,62.37
2023-06-03T01:00:41.403Z,63.62
2023-06-03T01:05:47.020Z,63.74
2023-06-03T01:11:06.725Z,64.87
2023-06-03T01:16:10.141Z,64.87
2023-06-03T01:21:13.776Z,64.99
2023-06-03T01:26:18.035Z,64.88
2023-06-03T01:31:21.063Z,65.87
2023-06-03T01:36:24.099Z,65.56
2023-06-03T01:41:27.006Z,65.41
2023-06-03T01:46:29.985Z,66.54
2023-06-03T01:51:32.998Z,66.60
2023-06-03T01:56:36.218Z,66.38
2023-06-03T02:01:44.475Z,66.83
2023-06-03T02:06:56.794Z,68.36
2023-06-03T02:12:01.207Z,68.59
2023-06-03T02:17:04.368Z,68.05
2023-06-03T02:22:07.951Z,68.05
2023-06-03T02:27:11.748Z,67.94
2023-06-03T02:32:14.667Z,69.00
2023-06-03T02:37:17.645Z,68.80
2023-06-03T02:42:22.121Z,68.80
2023-06-03T02:47:25.050Z,69.72
2023-06-03T02:52:27.942Z,69.68
2023-06-03T02:57:30.936Z,69.44
2023-06-03T03:02:34.458Z,70.61
2023-06-03T03:07:38.085Z,71.33
2023-06-03T03:12:40.962Z,71.01
2023-06-03T03:17:44.048Z,70.29
2023-06-03T03:22:47.111Z,70.64
2023-06-03T03:27:50.092Z,70.17
2023-06-03T03:32:53.085Z,69.84
2023-06-03T03:38:04.930Z,69.70
2023-06-03T03:43:15.951Z,69.25
2023-06-03T03:48:18.926Z,68.98
2023-06-03T03:53:26.499Z,69.10
2023-06-03T03:58:41.606Z,68.77
2023-06-03T04:03:46.795Z,68.48
2023-06-03T04:08:49.716Z,67.68
2023-06-03T04:13:52.972Z,67.71
2023-06-03T04:18:55.905Z,67.99
2023-06-03T04:23:59.020Z,68.52
2023-06-03T04:29:03.269Z,68.21
2023-06-03T04:34:06.542Z,68.84
2023-06-03T04:39:09.892Z,68.41
2023-06-03T04:44:14.418Z,68.99
2023-06-03T04:49:17.469Z,68.29
2023-06-03T04:54:25.280Z,68.28
2023-06-03T04:59:28.323Z,68.23
2023-06-03T05:04:31.285Z,67.87
2023-06-03T05:09:34.236Z,67.80
2023-06-03T05:14:37.112Z,67.62
2023-06-03T05:19:40.170Z,67.48
2023-06-03T05:24:43.190Z,67.40
2023-06-03T05:29:46.959Z,66.89
2023-06-03T05:34:49.915Z,66.50
2023-06-03T05:39:52.806Z,65.61
2023-06-03T05:44:56.177Z,64.85
2023-06-03T05:49:59.169Z,64.65
2023-06-03T05:55:02.087Z,64.18
2023-06-03T06:00:06.104Z,63.77
2023-06-03T06:05:09.438Z,63.52
2023-06-03T06:10:12.987Z,63.08
2023-06-03T06:15:16.099Z,62.25
2023-06-03T06:20:19.455Z,61.98
2023-06-03T06:25:22.809Z,61.61
2023-06-03T06:30:25.842Z,61.34
2023-06-03T06:35:29.594Z,60.83
2023-06-03T06:40:34.938Z,60.57
2023-06-03T06:45:38.182Z,59.42
2023-06-03T06:50:47.966Z,59.46
2023-06-03T06:55:58.709Z,58.38
2023-06-03T07:01:02.289Z,58.03
2023-06-03T07:06:06.274Z,57.47
2023-06-03T07:11:09.745Z,57.14
2023-06-03T07:16:13.071Z,55.80
2023-06-03T07:21:16.878Z,55.43
2023-06-03T07:26:19.843Z,54.29
2023-06-03T07:31:22.849Z,53.87
2023-06-03T07:36:27.759Z,53.51
2023-06-03T07:41:38.134Z,52.35
2023-06-03T07:46:55.994Z,50.12
2023-06-03T07:51:58.837Z,50.50
2023-06-03T07:57:02.647Z,49.57
2023-06-03T08:02:07.747Z,49.23
2023-06-03T08:07:11.081Z,47.56
2023-06-03T08:12:14.170Z,46.42
2023-06-03T08:17:17.490Z,47.06
2023-06-03T08:22:42.964Z,46.98
2023-06-03T08:27:46.632Z,46.31
2023-06-03T08:32:51.081Z,45.81
2023-06-03T08:37:54.110Z,44.81
2023-06-03T08:43:01.815Z,44.70
2023-06-03T08:48:25.049Z,43.45
2023-06-03T08:53:27.928Z,43.11
2023-06-03T08:58:35.050Z,43.10
2023-06-03T09:03:38.230Z,42.56
2023-06-03T09:08:41.606Z,42.88
2023-06-03T09:13:44.481Z,42.53
2023-06-03T09:18:49.612Z,41.76
2023-06-03T09:23:52.731Z,39.88
2023-06-03T09:28:55.968Z,39.96
2023-06-03T09:33:59.234Z,38.76
2023-06-03T09:39:03.546Z,38.91
2023-06-03T09:44:10.039Z,38.48
2023-06-03T09:49:20.417Z,38.17
2023-06-03T09:54:31.674Z,36.95
2023-06-03T09:59:34.606Z,36.76
2023-06-03T10:04:47.921Z,35.39
2023-06-03T10:09:51.188Z,33.16
2023-06-03T10:14:54.581Z,31.99
2023-06-03T10:19:57.770Z,31.75
2023-06-03T10:25:00.741Z,28.58
2023-06-03T10:30:05.963Z,29.31
2023-06-03T10:35:11.942Z,28.99
2023-06-03T10:40:14.936Z,27.79
2023-06-03T10:45:17.918Z,26.29
2023-06-03T10:50:48.666Z,25.42
2023-06-03T10:56:14.470Z,25.00
2023-06-03T11:01:17.581Z,24.71
2023-06-03T11:06:22.491Z,23.17
2023-06-03T11:11:43.525Z,22.54
2023-06-03T11:16:58.829Z,21.69
2023-06-03T11:22:06.177Z,21.87
2023-06-03T11:27:14.973Z,20.38
2023-06-03T11:32:36.486Z,20.12
2023-06-03T11:37:42.712Z,19.15
2023-06-03T11:42:52.997Z,17.71
2023-06-03T11:48:08.629Z,16.32
2023-06-03T11:53:33.233Z,15.95
2023-06-03T11:58:37.421Z,14.86
2023-06-03T12:03:40.448Z,15.19
2023-06-03T12:08:50.590Z,14.88
2023-06-03T12:13:53.872Z,15.74
2023-06-03T12:18:56.906Z,14.61
2023-06-03T12:23:59.928Z,15.54
2023-06-03T12:29:13.712Z,15.93
2023-06-03T12:34:38.349Z,15.27
2023-06-03T12:39:49.665Z,14.15
2023-06-03T12:44:54.251Z,13.98
2023-06-03T12:50:10.687Z,14.08
2023-06-03T12:55:15.865Z,13.08
2023-06-03T13:00:23.585Z,13.34
2023-06-03T13:05:26.719Z,12.40
2023-06-03T13:10:30.234Z,11.89
2023-06-03T13:15:33.645Z,11.10
2023-06-03T13:20:36.592Z,11.18
2023-06-03T13:25:39.604Z,11.65
2023-06-03T13:30:42.530Z,10.91
2023-06-03T13:35:45.607Z,11.76
2023-06-03T13:40:48.469Z,10.82
2023-06-03T13:45:51.686Z,11.61
2023-06-03T13:50:54.804Z,10.88
2023-06-03T13:55:57.761Z,10.41
2023-06-03T14:01:00.677Z,10.22
2023-06-03T14:06:03.734Z,10.63
2023-06-03T14:11:08.271Z,9.69
2023-06-03T14:16:11.659Z,9.33
2023-06-03T14:21:14.583Z,9.61
2023-06-03T14:26:19.760Z,10.05
2023-06-03T14:31:33.974Z,11.11
2023-06-03T14:36:39.506Z,12.99
2023-06-03T14:41:43.747Z,14.46
2023-06-03T14:46:46.820Z,15.71
2023-06-03T14:51:49.720Z,17.18
2023-06-03T14:56:52.803Z,16.98
2023-06-03T15:01:55.848Z,17.52
2023-06-03T15:06:58.959Z,17.83
2023-06-03T15:12:01.901Z,19.56
2023-06-03T15:17:05.101Z,19.20
2023-06-03T15:22:08.263Z,19.85
2023-06-03T15:27:11.737Z,19.63
2023-06-03T15:32:14.741Z,20.92
2023-06-03T15:37:17.679Z,22.12
2023-06-03T15:42:20.696Z,22.75
2023-06-03T15:47:24.431Z,22.59
2023-06-03T15:52:28.577Z,23.25
2023-06-03T15:57:31.687Z,23.04
2023-06-03T16:02:34.680Z,23.52
2023-06-03T16:07:37.825Z,23.83
2023-06-03T16:12:40.879Z,23.83
2023-06-03T16:17:43.925Z,23.59
2023-06-03T16:22:46.901Z,24.04
2023-06-03T16:27:51.802Z,24.61
2023-06-03T16:32:54.801Z,24.74
2023-06-03T16:37:57.723Z,24.85
2023-06-03T16:43:00.756Z,24.92
2023-06-03T16:48:04.141Z,25.15
2023-06-03T16:53:07.047Z,24.76
2023-06-03T16:58:10.001Z,24.87
2023-06-03T17:03:12.979Z,25.75
2023-06-03T17:08:16.077Z,25.62
2023-06-03T17:13:18.971Z,25.34
2023-06-03T17:18:21.866Z,26.37
2023-06-03T17:23:24.823Z,26.83
2023-06-03T17:28:27.910Z,28.18
2023-06-03T17:33:31.047Z,28.71
2023-06-03T17:38:34.014Z,29.71
2023-06-03T17:43:43.160Z,31.17
2023-06-03T17:48:46.159Z,30.25
2023-06-03T17:53:49.263Z,31.34
2023-06-03T17:58:52.428Z,31.26
2023-06-03T18:03:55.290Z,32.27
2023-06-03T18:08:58.752Z,32.33
2023-06-03T18:14:01.754Z,32.86
2023-06-03T18:19:04.838Z,33.89
2023-06-03T18:24:07.885Z,33.82
2023-06-03T18:29:10.820Z,34.99
2023-06-03T18:34:14.438Z,35.89
2023-06-03T18:39:17.517Z,36.60
2023-06-03T18:44:20.625Z,36.88
2023-06-03T18:49:23.588Z,38.27
2023-06-03T18:54:27.053Z,39.30
2023-06-03T18:59:30.262Z,40.68
2023-06-03T19:04:33.190Z,40.47
2023-06-03T19:09:36.375Z,40.77
2023-06-03T19:14:39.358Z,39.77
2023-06-03T19:19:42.596Z,40.24
2023-06-03T19:24:45.607Z,40.66
2023-06-03T19:29:48.534Z,40.42
2023-06-03T19:34:52.458Z,41.73
2023-06-03T19:39:56.553Z,41.99
2023-06-03T19:45:01.433Z,43.12
2023-06-03T19:50:05.197Z,43.10
2023-06-03T19:55:09.051Z,43.85
2023-06-03T20:00:13.244Z,44.25
2023-06-03T20:05:16.696Z,44.97
2023-06-03T20:10:19.696Z,45.17
2023-06-03T20:15:22.707Z,45.88
2023-06-03T20:20:25.652Z,45.95
2023-06-03T20:25:28.586Z,46.89
2023-06-03T20:30:32.262Z,46.67
2023-06-03T20:35:35.610Z,46.64
2023-06-03T20:40:38.958Z,46.33
2023-06-03T20:45:41.899Z,46.17
2023-06-03T20:50:44.836Z,46.16
2023-06-03T20:55:47.840Z,46.30
2023-06-03T21:00:50.781Z,47.30
2023-06-03T21:05:53.770Z,47.29
2023-06-03T21:10:56.885Z,47.94
2023-06-03T21:16:00.669Z,48.94
2023-06-03T21:21:03.751Z,49.08
2023-06-03T21:26:07.045Z,49.15
2023-06-03T21:31:10.142Z,50.18
2023-06-03T21:36:13.402Z,50.26
2023-06-03T21:41:16.273Z,50.66
2023-06-03T21:46:19.366Z,50.56
2023-06-03T21:51:22.604Z,52.50
2023-06-03T21:56:27.121Z,54.55
2023-06-03T22:01:31.091Z,55.16
2023-06-03T22:06:34.532Z,53.61
2023-06-03T22:11:37.390Z,54.91
2023-06-03T22:16:40.391Z,54.62
2023-06-03T22:21:44.498Z,56.35
2023-06-03T22:26:47.409Z,55.73
2023-06-03T22:31:50.331Z,55.59
2023-06-03T22:36:53.418Z,56.28
2023-06-03T22:41:56.773Z,56.22
2023-06-03T22:47:00.615Z,56.49
2023-06-03T22:52:03.917Z,57.06
2023-06-03T22:57:07.372Z,57.25
2023-06-03T23:02:10.585Z,58.14
2023-06-03T23:07:13.810Z,58.31
2023-06-03T23:12:17.104Z,59.20
2023-06-03T23:17:20.053Z,60.20
2023-06-03T23:22:23.044Z,60.34
2023-06-03T23:27:26.037Z,59.90
2023-06-03T23:32:29.150Z,59.59
2023-06-03T23:37:33.610Z,60.93
2023-06-03T23:42:36.874Z,61.40
2023-06-03T23:47:39.822Z,60.34
2023-06-03T23:52:42.691Z,61.72
2023-06-03T23:57:45.778Z,61.96
